Johannesburg, California
Current Conditions -  °F | °C
As of 9:56 AM on Thursday 27 Nov 2014 (Local Time) from KNID Reporting Station
Clear Clear  
Wind Chill: 53°   Ceiling: Unl
Heat Index: 53°   Visibility: 10mi
Dew Point: 14°   Wind: 0mph
Humidity: 21%   Direction: NA
Pressure: 30.29"   Gusts: NA
Location:  35.37°N, 117.64°W
Report Text: KNID 271756Z AUTO 00000KT 10SM CLR 12/M10 A3029 RMK AO2 SLP263 T01171100 10117 20006 50000 $
Loading
Personal Weather Stations






























Interactive Weather Map New forecast layout! Learn more

10-Day Weather Forecast

Advertisements
Track Severe Weather on mobile